トロンハイム の空港の天気 - METARとTAF

Trondheim / Vaernes ( ENVA / TRD ) - ノルウェー ヌール・トロンデラーグ県、Stjordal
飛行場実況気象(Metar)
観測時間07/22 01:50 CEST (07/21 23:50 UTC)
風向・風速西南西 3m/s
視程10km以上
天気現象
なし
気温16℃
湿度82%
気圧1018hPa
METARENVA 212350Z 24006KT 9999 NSC 16/13 Q1018 RMK WIND 670FT 27012KT
過去の天気等 Google飛行場航空写真 Wunderground天気予報

過去48時間のMETAR

飛行場予報(TAF)
発表時間: -
22日14時 CEST から 確率 40% で
風向・風速西 5m/s
TAF ENVA 2200/2224 VRB07KT CAVOK
PROB40 2212/2219 27010KT